Time,TemperatureF,DewpointF,PressureIn,WindDirection,WindDirectionDegrees,WindSpeedMPH,WindSpeedGustMPH,Humidity,HourlyPrecipIn,Conditions,Clouds,dailyrainin,SolarRadiationWatts/m^2,SoftwareType,DateUTC
2013-01-03 00:03:00,32.0,32.0,-100.00,NNW,344,5.0,11.0,100,0.00,,,0.00,0.000000,,2013-01-03 06:03:00,
2013-01-03 00:33:00,31.0,31.0,-100.00,North,1,4.0,8.0,100,0.00,,,0.00,0.000000,,2013-01-03 06:33:00,
2013-01-03 00:43:00,31.0,31.0,-100.00,North,1,4.0,8.0,100,0.00,,,0.00,0.000000,,2013-01-03 06:43:00,
2013-01-03 00:53:00,31.0,31.0,-100.00,North,1,4.0,8.0,100,0.00,,,0.00,0.000000,,2013-01-03 06:53:00,
2013-01-03 01:02:00,31.0,31.0,-100.00,North,1,4.0,8.0,100,0.00,,,0.00,0.000000,,2013-01-03 07:02:00,
2013-01-03 01:33:00,31.0,31.0,-100.00,NNE,26,2.0,12.0,100,0.00,,,0.00,0.000000,,2013-01-03 07:33:00,
2013-01-03 01:43:00,31.0,31.0,-100.00,NNE,26,2.0,12.0,100,0.00,,,0.00,0.000000,,2013-01-03 07:43:00,
2013-01-03 01:53:00,31.0,31.0,-100.00,NNE,26,2.0,12.0,100,0.00,,,0.00,0.000000,,2013-01-03 07:53:00,
2013-01-03 02:02:00,31.0,31.0,-100.00,NNE,26,2.0,12.0,100,0.00,,,0.00,0.000000,,2013-01-03 08:02:00,
2013-01-03 02:33:00,31.0,31.0,-100.00,North,356,3.0,8.0,100,0.00,,,0.00,0.000000,,2013-01-03 08:33:00,
2013-01-03 02:43:00,31.0,31.0,-100.00,North,356,3.0,8.0,100,0.00,,,0.00,0.000000,,2013-01-03 08:43:00,
2013-01-03 02:53:00,31.0,31.0,-100.00,North,356,3.0,8.0,100,0.00,,,0.00,0.000000,,2013-01-03 08:53:00,
2013-01-03 03:03:00,31.0,31.0,-100.00,North,356,3.0,8.0,100,0.00,,,0.00,0.000000,,2013-01-03 09:03:00,
2013-01-03 03:34:00,30.0,29.0,-100.00,NNW,348,3.0,7.0,98,0.00,,,0.00,0.000000,,2013-01-03 09:34:00,
2013-01-03 03:43:00,30.0,29.0,-100.00,NNW,348,3.0,7.0,98,0.00,,,0.00,0.000000,,2013-01-03 09:43:00,
2013-01-03 03:53:00,30.0,29.0,-100.00,NNW,348,3.0,7.0,98,0.00,,,0.00,0.000000,,2013-01-03 09:53:00,
2013-01-03 04:02:00,30.0,29.0,-100.00,NNW,348,3.0,7.0,98,0.00,,,0.00,0.000000,,2013-01-03 10:02:00,
2013-01-03 04:33:00,30.0,30.0,-100.00,NNW,343,5.0,9.0,100,0.00,,,0.00,0.000000,,2013-01-03 10:33:00,
2013-01-03 04:43:00,30.0,30.0,-100.00,NNW,343,5.0,9.0,100,0.00,,,0.00,0.000000,,2013-01-03 10:43:00,
2013-01-03 04:53:00,30.0,30.0,-100.00,NNW,343,5.0,9.0,100,0.00,,,0.00,0.000000,,2013-01-03 10:53:00,
2013-01-03 05:02:00,30.0,30.0,-100.00,NNW,343,5.0,9.0,100,0.00,,,0.00,0.000000,,2013-01-03 11:02:00,
2013-01-03 05:33:00,30.0,29.0,-100.00,NNW,336,3.0,10.0,98,0.00,,,0.00,0.000000,,2013-01-03 11:33:00,
2013-01-03 05:43:00,30.0,29.0,-100.00,NNW,336,3.0,10.0,98,0.00,,,0.00,0.000000,,2013-01-03 11:43:00,
2013-01-03 05:53:00,30.0,29.0,-100.00,NNW,336,3.0,10.0,98,0.00,,,0.00,0.000000,,2013-01-03 11:53:00,
2013-01-03 06:03:00,30.0,29.0,-100.00,NNW,336,3.0,10.0,98,0.00,,,0.00,0.000000,,2013-01-03 12:03:00,
2013-01-03 06:33:00,29.0,28.0,-100.00,NNW,343,4.0,10.0,97,0.00,,,0.00,0.000000,,2013-01-03 12:33:00,
2013-01-03 06:43:00,29.0,28.0,-100.00,NNW,343,4.0,10.0,97,0.00,,,0.00,0.000000,,2013-01-03 12:43:00,
2013-01-03 06:53:00,29.0,28.0,-100.00,NNW,343,4.0,10.0,97,0.00,,,0.00,0.000000,,2013-01-03 12:53:00,
2013-01-03 07:02:00,29.0,28.0,-100.00,NNW,343,4.0,10.0,97,0.00,,,0.00,0.000000,,2013-01-03 13:02:00,
2013-01-03 07:33:00,29.0,28.0,-100.00,NNW,346,7.0,13.0,96,0.00,,,0.00,1.000000,,2013-01-03 13:33:00,
2013-01-03 07:43:00,29.0,28.0,-100.00,NNW,346,7.0,13.0,96,0.00,,,0.00,1.000000,,2013-01-03 13:43:00,
2013-01-03 07:53:00,29.0,28.0,-100.00,NNW,346,7.0,13.0,96,0.00,,,0.00,1.000000,,2013-01-03 13:53:00,
2013-01-03 08:03:00,29.0,28.0,-100.00,NNW,346,7.0,13.0,96,0.00,,,0.00,1.000000,,2013-01-03 14:03:00,
2013-01-03 08:33:00,29.0,27.0,-100.00,North,354,8.0,14.0,93,0.00,,,0.00,36.000000,,2013-01-03 14:33:00,
2013-01-03 08:43:00,29.0,27.0,-100.00,North,354,8.0,14.0,93,0.00,,,0.00,36.000000,,2013-01-03 14:43:00,
2013-01-03 08:53:00,29.0,27.0,-100.00,North,354,8.0,14.0,93,0.00,,,0.00,36.000000,,2013-01-03 14:53:00,
2013-01-03 09:03:00,29.0,27.0,-100.00,North,354,8.0,14.0,93,0.00,,,0.00,36.000000,,2013-01-03 15:03:00,
2013-01-03 09:34:00,30.0,27.0,-100.00,NNW,348,8.0,15.0,88,0.00,,,0.00,114.000000,,2013-01-03 15:34:00,
2013-01-03 09:43:00,30.0,27.0,-100.00,NNW,348,8.0,15.0,88,0.00,,,0.00,114.000000,,2013-01-03 15:43:00,
2013-01-03 09:53:00,30.0,27.0,-100.00,NNW,348,8.0,15.0,88,0.00,,,0.00,114.000000,,2013-01-03 15:53:00,
2013-01-03 10:03:00,30.0,27.0,-100.00,NNW,348,8.0,15.0,88,0.00,,,0.00,114.000000,,2013-01-03 16:03:00,
2013-01-03 10:34:00,33.0,28.0,-100.00,NNW,346,8.0,14.0,81,0.00,,,0.00,261.000000,,2013-01-03 16:34:00,
2013-01-03 10:43:00,33.0,28.0,-100.00,NNW,346,8.0,14.0,81,0.00,,,0.00,261.000000,,2013-01-03 16:43:00,
2013-01-03 10:53:00,33.0,28.0,-100.00,NNW,346,8.0,14.0,81,0.00,,,0.00,261.000000,,2013-01-03 16:53:00,
2013-01-03 11:03:00,33.0,28.0,-100.00,NNW,346,8.0,14.0,81,0.00,,,0.00,261.000000,,2013-01-03 17:03:00,
2013-01-03 11:33:00,36.0,26.0,-100.00,NNW,348,7.0,16.0,66,0.00,,,0.00,444.000000,,2013-01-03 17:33:00,
2013-01-03 11:43:00,36.0,26.0,-100.00,NNW,348,7.0,16.0,66,0.00,,,0.00,444.000000,,2013-01-03 17:43:00,
2013-01-03 11:53:00,36.0,26.0,-100.00,NNW,348,7.0,16.0,66,0.00,,,0.00,444.000000,,2013-01-03 17:53:00,
2013-01-03 12:03:00,36.0,26.0,-100.00,NNW,348,7.0,16.0,66,0.00,,,0.00,444.000000,,2013-01-03 18:03:00,
2013-01-03 12:33:00,36.0,26.0,-100.00,North,350,6.0,14.0,67,0.00,,,0.00,298.000000,,2013-01-03 18:33:00,
2013-01-03 12:43:00,36.0,26.0,-100.00,North,350,6.0,14.0,67,0.00,,,0.00,298.000000,,2013-01-03 18:43:00,
2013-01-03 12:53:00,36.0,26.0,-100.00,North,350,6.0,14.0,67,0.00,,,0.00,298.000000,,2013-01-03 18:53:00,
2013-01-03 13:03:00,36.0,26.0,-100.00,North,350,6.0,14.0,67,0.00,,,0.00,298.000000,,2013-01-03 19:03:00,
2013-01-03 13:57:00,39.0,26.0,-100.00,NNW,342,5.0,13.0,59,0.00,,,0.00,445.000000,,2013-01-03 19:57:00,
2013-01-03 14:03:00,39.0,26.0,-100.00,NNW,342,5.0,13.0,59,0.00,,,0.00,445.000000,,2013-01-03 20:03:00,
2013-01-03 14:33:00,40.0,23.0,-100.00,NNW,334,7.0,14.0,50,0.00,,,0.00,448.000000,,2013-01-03 20:33:00,
2013-01-03 14:43:00,40.0,23.0,-100.00,NNW,334,7.0,14.0,50,0.00,,,0.00,448.000000,,2013-01-03 20:43:00,
2013-01-03 14:53:00,40.0,23.0,-100.00,NNW,334,7.0,14.0,50,0.00,,,0.00,448.000000,,2013-01-03 20:53:00,
2013-01-03 15:03:00,40.0,23.0,-100.00,NNW,334,7.0,14.0,50,0.00,,,0.00,448.000000,,2013-01-03 21:03:00,
2013-01-03 15:38:00,38.0,24.0,-100.00,NNW,333,5.0,16.0,56,0.00,,,0.00,179.000000,,2013-01-03 21:38:00,
2013-01-03 15:51:00,38.0,24.0,-100.00,NNW,333,5.0,16.0,56,0.00,,,0.00,179.000000,,2013-01-03 21:51:00,
2013-01-03 16:03:00,38.0,24.0,-100.00,NNW,333,5.0,16.0,56,0.00,,,0.00,179.000000,,2013-01-03 22:03:00,
2013-01-03 16:33:00,36.0,25.0,-100.00,NNW,334,6.0,11.0,63,0.00,,,0.00,70.000000,,2013-01-03 22:33:00,
2013-01-03 16:43:00,36.0,25.0,-100.00,NNW,334,6.0,11.0,63,0.00,,,0.00,70.000000,,2013-01-03 22:43:00,
2013-01-03 16:53:00,36.0,25.0,-100.00,NNW,334,6.0,11.0,63,0.00,,,0.00,70.000000,,2013-01-03 22:53:00,
2013-01-03 17:03:00,36.0,25.0,-100.00,NNW,334,6.0,11.0,63,0.00,,,0.00,70.000000,,2013-01-03 23:03:00,
2013-01-03 17:33:00,33.0,23.0,-100.00,NNW,339,5.0,12.0,67,0.00,,,0.00,9.000000,,2013-01-03 23:33:00,
2013-01-03 17:43:00,33.0,23.0,-100.00,NNW,339,5.0,12.0,67,0.00,,,0.00,9.000000,,2013-01-03 23:43:00,
2013-01-03 17:53:00,33.0,23.0,-100.00,NNW,339,5.0,12.0,67,0.00,,,0.00,9.000000,,2013-01-03 23:53:00,
2013-01-03 18:03:00,33.0,23.0,-100.00,NNW,339,5.0,12.0,67,0.00,,,0.00,9.000000,,2013-01-04 00:03:00,
2013-01-03 18:33:00,32.0,25.0,-100.00,East,94,1.0,11.0,74,0.00,,,0.00,0.000000,,2013-01-04 00:33:00,
2013-01-03 18:42:00,32.0,25.0,-100.00,East,94,1.0,11.0,74,0.00,,,0.00,0.000000,,2013-01-04 00:42:00,
2013-01-03 18:53:00,32.0,25.0,-100.00,East,94,1.0,11.0,74,0.00,,,0.00,0.000000,,2013-01-04 00:53:00,
2013-01-03 19:02:00,32.0,25.0,-100.00,East,94,1.0,11.0,74,0.00,,,0.00,0.000000,,2013-01-04 01:02:00,
2013-01-03 19:33:00,30.0,23.0,-100.00,NNE,18,0.0,1.0,75,0.00,,,0.00,0.000000,,2013-01-04 01:33:00,
2013-01-03 19:42:00,30.0,23.0,-100.00,NNE,18,0.0,1.0,75,0.00,,,0.00,0.000000,,2013-01-04 01:42:00,
2013-01-03 19:53:00,30.0,23.0,-100.00,NNE,18,0.0,1.0,75,0.00,,,0.00,0.000000,,2013-01-04 01:53:00,
2013-01-03 20:02:00,30.0,23.0,-100.00,NNE,18,0.0,1.0,75,0.00,,,0.00,0.000000,,2013-01-04 02:02:00,
2013-01-03 20:33:00,31.0,23.0,-100.00,ENE,62,0.0,5.0,71,0.00,,,0.00,0.000000,,2013-01-04 02:33:00,
2013-01-03 20:42:00,31.0,23.0,-100.00,ENE,62,0.0,5.0,71,0.00,,,0.00,0.000000,,2013-01-04 02:42:00,
2013-01-03 20:53:00,31.0,23.0,-100.00,ENE,62,0.0,5.0,71,0.00,,,0.00,0.000000,,2013-01-04 02:53:00,
2013-01-03 21:03:00,31.0,23.0,-100.00,ENE,62,0.0,5.0,71,0.00,,,0.00,0.000000,,2013-01-04 03:03:00,
2013-01-03 21:33:00,30.0,23.0,-100.00,NW,323,1.0,9.0,76,0.00,,,0.00,0.000000,,2013-01-04 03:33:00,
2013-01-03 21:43:00,30.0,23.0,-100.00,NW,323,1.0,9.0,76,0.00,,,0.00,0.000000,,2013-01-04 03:43:00,
2013-01-03 21:53:00,30.0,23.0,-100.00,NW,323,1.0,9.0,76,0.00,,,0.00,0.000000,,2013-01-04 03:53:00,
2013-01-03 22:02:00,30.0,23.0,-100.00,NW,323,1.0,9.0,76,0.00,,,0.00,0.000000,,2013-01-04 04:02:00,
2013-01-03 22:32:00,29.0,22.0,-100.00,NNW,345,2.0,5.0,74,0.00,,,0.00,0.000000,,2013-01-04 04:32:00,
2013-01-03 22:42:00,29.0,22.0,-100.00,NNW,345,2.0,5.0,74,0.00,,,0.00,0.000000,,2013-01-04 04:42:00,
2013-01-03 22:53:00,29.0,22.0,-100.00,NNW,345,2.0,5.0,74,0.00,,,0.00,0.000000,,2013-01-04 04:53:00,
2013-01-03 23:03:00,29.0,22.0,-100.00,NNW,345,2.0,5.0,74,0.00,,,0.00,0.000000,,2013-01-04 05:03:00,
2013-01-03 23:33:00,29.0,20.0,-100.00,NE,36,0.0,3.0,68,0.00,,,0.00,0.000000,,2013-01-04 05:33:00,
2013-01-03 23:42:00,29.0,20.0,-100.00,NE,36,0.0,3.0,68,0.00,,,0.00,0.000000,,2013-01-04 05:42:00,
2013-01-03 23:53:00,29.0,20.0,-100.00,NE,36,0.0,3.0,68,0.00,,,0.00,0.000000,,2013-01-04 05:53:00,